sensor_id;sensor_type;location;lat;lon;timestamp;pressure;altitude;pressure_sealevel;temperature
62611;BMP280;48683;48.084;17.272;2023-04-12T00:00:29;100097.72;;;7.03
62611;BMP280;48683;48.084;17.272;2023-04-12T00:02:55;100084.78;;;7.05
62611;BMP280;48683;48.084;17.272;2023-04-12T00:05:24;100105.84;;;7.13
62611;BMP280;48683;48.084;17.272;2023-04-12T00:07:52;100112.28;;;7.09
62611;BMP280;48683;48.084;17.272;2023-04-12T00:10:18;100101.56;;;7.05
62611;BMP280;48683;48.084;17.272;2023-04-12T00:12:43;100109.13;;;7.00
62611;BMP280;48683;48.084;17.272;2023-04-12T00:15:09;100105.69;;;6.99
62611;BMP280;48683;48.084;17.272;2023-04-12T00:17:34;100106.47;;;7.00
62611;BMP280;48683;48.084;17.272;2023-04-12T00:20:01;100096.41;;;6.90
62611;BMP280;48683;48.084;17.272;2023-04-12T00:22:29;100108.16;;;6.85
62611;BMP280;48683;48.084;17.272;2023-04-12T00:24:55;100091.25;;;6.74
62611;BMP280;48683;48.084;17.272;2023-04-12T00:27:20;100088.53;;;6.71
62611;BMP280;48683;48.084;17.272;2023-04-12T00:29:45;100095.47;;;6.75
62611;BMP280;48683;48.084;17.272;2023-04-12T00:32:11;100080.84;;;6.65
62611;BMP280;48683;48.084;17.272;2023-04-12T00:34:36;100081.31;;;6.71
62611;BMP280;48683;48.084;17.272;2023-04-12T00:37:01;100083.94;;;6.67
62611;BMP280;48683;48.084;17.272;2023-04-12T00:39:27;100083.63;;;6.73
62611;BMP280;48683;48.084;17.272;2023-04-12T00:41:53;100082.81;;;6.68
62611;BMP280;48683;48.084;17.272;2023-04-12T00:44:19;100062.09;;;6.58
62611;BMP280;48683;48.084;17.272;2023-04-12T00:46:45;100069.69;;;6.56
62611;BMP280;48683;48.084;17.272;2023-04-12T00:49:12;100073.00;;;6.50
62611;BMP280;48683;48.084;17.272;2023-04-12T00:51:38;100063.03;;;6.43
62611;BMP280;48683;48.084;17.272;2023-04-12T00:54:05;100071.84;;;6.47
62611;BMP280;48683;48.084;17.272;2023-04-12T00:56:31;100062.69;;;6.45
62611;BMP280;48683;48.084;17.272;2023-04-12T00:58:57;100065.75;;;6.47
62611;BMP280;48683;48.084;17.272;2023-04-12T01:01:22;100074.16;;;6.49
62611;BMP280;48683;48.084;17.272;2023-04-12T01:03:52;100065.13;;;6.57
62611;BMP280;48683;48.084;17.272;2023-04-12T01:06:26;100055.63;;;6.59
62611;BMP280;48683;48.084;17.272;2023-04-12T01:14:16;100036.28;;;6.66
62611;BMP280;48683;48.084;17.272;2023-04-12T01:16:46;100041.25;;;6.67
62611;BMP280;48683;48.084;17.272;2023-04-12T01:22:35;100040.13;;;6.68
62611;BMP280;48683;48.084;17.272;2023-04-12T01:27:55;100035.03;;;6.56
62611;BMP280;48683;48.084;17.272;2023-04-12T01:30:25;100031.97;;;6.58
62611;BMP280;48683;48.084;17.272;2023-04-12T01:32:52;100037.28;;;6.54
62611;BMP280;48683;48.084;17.272;2023-04-12T01:35:20;100024.72;;;6.55
62611;BMP280;48683;48.084;17.272;2023-04-12T01:37:47;100038.00;;;6.51
62611;BMP280;48683;48.084;17.272;2023-04-12T01:40:12;100038.81;;;6.55
62611;BMP280;48683;48.084;17.272;2023-04-12T01:42:38;100041.78;;;6.50
62611;BMP280;48683;48.084;17.272;2023-04-12T01:45:07;100030.41;;;6.53
62611;BMP280;48683;48.084;17.272;2023-04-12T01:47:33;100030.03;;;6.55
62611;BMP280;48683;48.084;17.272;2023-04-12T01:50:11;100023.97;;;6.58
62611;BMP280;48683;48.084;17.272;2023-04-12T01:52:52;100020.09;;;6.52
62611;BMP280;48683;48.084;17.272;2023-04-12T01:55:22;100015.94;;;6.54
62611;BMP280;48683;48.084;17.272;2023-04-12T01:57:49;100011.75;;;6.53
62611;BMP280;48683;48.084;17.272;2023-04-12T02:00:15;100004.88;;;6.52
62611;BMP280;48683;48.084;17.272;2023-04-12T02:02:42;99991.41;;;6.42
62611;BMP280;48683;48.084;17.272;2023-04-12T02:05:09;99999.34;;;6.38
62611;BMP280;48683;48.084;17.272;2023-04-12T02:07:35;99996.66;;;6.38
62611;BMP280;48683;48.084;17.272;2023-04-12T02:10:01;99985.25;;;6.38
62611;BMP280;48683;48.084;17.272;2023-04-12T02:12:26;99985.19;;;6.34
62611;BMP280;48683;48.084;17.272;2023-04-12T02:14:52;99988.66;;;6.38
62611;BMP280;48683;48.084;17.272;2023-04-12T02:17:17;99969.19;;;6.34
62611;BMP280;48683;48.084;17.272;2023-04-12T02:19:44;99974.63;;;6.41
62611;BMP280;48683;48.084;17.272;2023-04-12T02:22:09;99970.44;;;6.40
62611;BMP280;48683;48.084;17.272;2023-04-12T02:24:35;99968.94;;;6.43
62611;BMP280;48683;48.084;17.272;2023-04-12T02:27:00;99968.13;;;6.39
62611;BMP280;48683;48.084;17.272;2023-04-12T02:29:26;99970.69;;;6.32
62611;BMP280;48683;48.084;17.272;2023-04-12T02:31:51;99975.28;;;6.35
62611;BMP280;48683;48.084;17.272;2023-04-12T02:34:17;99989.72;;;6.30
62611;BMP280;48683;48.084;17.272;2023-04-12T02:36:46;99996.22;;;6.33
62611;BMP280;48683;48.084;17.272;2023-04-12T02:39:12;99991.16;;;6.24
62611;BMP280;48683;48.084;17.272;2023-04-12T02:41:38;99975.50;;;6.22
62611;BMP280;48683;48.084;17.272;2023-04-12T02:44:03;99980.25;;;6.33
62611;BMP280;48683;48.084;17.272;2023-04-12T02:46:28;99986.69;;;6.32
62611;BMP280;48683;48.084;17.272;2023-04-12T02:48:54;99991.28;;;6.35
62611;BMP280;48683;48.084;17.272;2023-04-12T02:51:19;99973.50;;;6.12
62611;BMP280;48683;48.084;17.272;2023-04-12T02:53:45;99992.25;;;6.19
62611;BMP280;48683;48.084;17.272;2023-04-12T02:56:10;99986.09;;;6.15
62611;BMP280;48683;48.084;17.272;2023-04-12T02:58:37;99987.50;;;6.06
62611;BMP280;48683;48.084;17.272;2023-04-12T03:01:02;99973.75;;;6.04
62611;BMP280;48683;48.084;17.272;2023-04-12T03:03:33;99976.41;;;6.04
62611;BMP280;48683;48.084;17.272;2023-04-12T03:05:58;99973.44;;;6.09
62611;BMP280;48683;48.084;17.272;2023-04-12T03:08:24;99982.66;;;5.89
62611;BMP280;48683;48.084;17.272;2023-04-12T03:10:49;99980.59;;;5.79
62611;BMP280;48683;48.084;17.272;2023-04-12T03:13:15;99967.81;;;5.42
62611;BMP280;48683;48.084;17.272;2023-04-12T03:15:40;99984.34;;;5.29
62611;BMP280;48683;48.084;17.272;2023-04-12T03:18:08;99986.84;;;5.41
62611;BMP280;48683;48.084;17.272;2023-04-12T03:20:33;99987.94;;;5.40
62611;BMP280;48683;48.084;17.272;2023-04-12T03:22:59;99988.00;;;5.43
62611;BMP280;48683;48.084;17.272;2023-04-12T03:25:24;99979.38;;;5.50
62611;BMP280;48683;48.084;17.272;2023-04-12T03:27:49;99991.63;;;5.54
62611;BMP280;48683;48.084;17.272;2023-04-12T03:30:15;99989.78;;;5.58
62611;BMP280;48683;48.084;17.272;2023-04-12T03:32:41;99983.78;;;5.65
62611;BMP280;48683;48.084;17.272;2023-04-12T03:35:07;99980.25;;;5.57
62611;BMP280;48683;48.084;17.272;2023-04-12T03:37:33;99980.78;;;5.44
62611;BMP280;48683;48.084;17.272;2023-04-12T03:39:59;99979.09;;;5.32
62611;BMP280;48683;48.084;17.272;2023-04-12T03:42:25;99985.13;;;5.29
62611;BMP280;48683;48.084;17.272;2023-04-12T03:44:51;99978.75;;;5.14
62611;BMP280;48683;48.084;17.272;2023-04-12T03:47:17;99975.88;;;5.23
62611;BMP280;48683;48.084;17.272;2023-04-12T03:49:43;99972.66;;;5.14
62611;BMP280;48683;48.084;17.272;2023-04-12T03:52:08;99955.56;;;5.15
62611;BMP280;48683;48.084;17.272;2023-04-12T03:54:34;99972.94;;;5.28
62611;BMP280;48683;48.084;17.272;2023-04-12T03:56:59;99967.53;;;5.24
62611;BMP280;48683;48.084;17.272;2023-04-12T03:59:26;99965.94;;;5.20
62611;BMP280;48683;48.084;17.272;2023-04-12T04:01:52;99968.53;;;5.16
62611;BMP280;48683;48.084;17.272;2023-04-12T04:04:17;99968.94;;;5.18
62611;BMP280;48683;48.084;17.272;2023-04-12T04:06:43;99967.81;;;5.19
62611;BMP280;48683;48.084;17.272;2023-04-12T04:09:08;99963.75;;;5.25
62611;BMP280;48683;48.084;17.272;2023-04-12T04:11:33;99963.41;;;5.27
62611;BMP280;48683;48.084;17.272;2023-04-12T04:13:59;99970.56;;;5.23
62611;BMP280;48683;48.084;17.272;2023-04-12T04:16:24;99968.72;;;5.27
62611;BMP280;48683;48.084;17.272;2023-04-12T04:18:50;99958.00;;;5.23
62611;BMP280;48683;48.084;17.272;2023-04-12T04:21:15;99959.06;;;5.19
62611;BMP280;48683;48.084;17.272;2023-04-12T04:23:41;99953.69;;;5.15
62611;BMP280;48683;48.084;17.272;2023-04-12T04:26:09;99955.94;;;5.13
62611;BMP280;48683;48.084;17.272;2023-04-12T04:28:39;99978.81;;;5.18
62611;BMP280;48683;48.084;17.272;2023-04-12T04:31:07;99975.09;;;5.22
62611;BMP280;48683;48.084;17.272;2023-04-12T04:33:35;99981.25;;;5.26
62611;BMP280;48683;48.084;17.272;2023-04-12T04:36:01;99979.03;;;5.29
62611;BMP280;48683;48.084;17.272;2023-04-12T04:38:28;99974.22;;;5.38
62611;BMP280;48683;48.084;17.272;2023-04-12T04:40:53;99958.78;;;5.24
62611;BMP280;48683;48.084;17.272;2023-04-12T04:43:20;99976.75;;;5.31
62611;BMP280;48683;48.084;17.272;2023-04-12T04:45:46;99977.19;;;5.33
62611;BMP280;48683;48.084;17.272;2023-04-12T04:48:14;99973.03;;;5.35
62611;BMP280;48683;48.084;17.272;2023-04-12T04:50:40;99976.47;;;5.36
62611;BMP280;48683;48.084;17.272;2023-04-12T04:53:05;99971.09;;;5.32
62611;BMP280;48683;48.084;17.272;2023-04-12T04:55:31;99978.47;;;5.42
62611;BMP280;48683;48.084;17.272;2023-04-12T04:57:56;99978.59;;;5.49
62611;BMP280;48683;48.084;17.272;2023-04-12T05:00:22;99977.97;;;5.56
62611;BMP280;48683;48.084;17.272;2023-04-12T05:02:49;99976.56;;;5.65
62611;BMP280;48683;48.084;17.272;2023-04-12T05:05:16;99989.22;;;5.72
62611;BMP280;48683;48.084;17.272;2023-04-12T05:07:41;99984.03;;;5.79
62611;BMP280;48683;48.084;17.272;2023-04-12T05:10:09;99970.75;;;5.83
62611;BMP280;48683;48.084;17.272;2023-04-12T05:12:36;99981.19;;;5.91
62611;BMP280;48683;48.084;17.272;2023-04-12T05:15:02;99978.16;;;5.93
62611;BMP280;48683;48.084;17.272;2023-04-12T05:17:27;99979.78;;;6.01
62611;BMP280;48683;48.084;17.272;2023-04-12T05:19:53;99974.97;;;6.10
62611;BMP280;48683;48.084;17.272;2023-04-12T05:22:18;99958.66;;;6.15
62611;BMP280;48683;48.084;17.272;2023-04-12T05:24:47;99972.16;;;6.26
62611;BMP280;48683;48.084;17.272;2023-04-12T05:27:13;99970.66;;;6.28
62611;BMP280;48683;48.084;17.272;2023-04-12T05:29:41;99986.06;;;6.42
62611;BMP280;48683;48.084;17.272;2023-04-12T05:32:07;99988.44;;;6.50
62611;BMP280;48683;48.084;17.272;2023-04-12T05:34:32;99993.13;;;6.57
62611;BMP280;48683;48.084;17.272;2023-04-12T05:36:57;99990.56;;;6.67
62611;BMP280;48683;48.084;17.272;2023-04-12T05:39:24;99992.19;;;6.76
62611;BMP280;48683;48.084;17.272;2023-04-12T05:41:49;99989.22;;;6.81
62611;BMP280;48683;48.084;17.272;2023-04-12T05:44:15;99993.97;;;6.98
62611;BMP280;48683;48.084;17.272;2023-04-12T05:46:40;99992.56;;;7.07
62611;BMP280;48683;48.084;17.272;2023-04-12T05:49:06;99986.19;;;7.19
62611;BMP280;48683;48.084;17.272;2023-04-12T05:51:32;99975.84;;;7.18
62611;BMP280;48683;48.084;17.272;2023-04-12T05:53:57;99979.38;;;7.29
62611;BMP280;48683;48.084;17.272;2023-04-12T05:56:22;99981.06;;;7.47
62611;BMP280;48683;48.084;17.272;2023-04-12T05:58:48;99977.69;;;7.50
62611;BMP280;48683;48.084;17.272;2023-04-12T06:01:13;99979.59;;;7.50
62611;BMP280;48683;48.084;17.272;2023-04-12T06:03:41;99988.03;;;7.59
62611;BMP280;48683;48.084;17.272;2023-04-12T06:06:07;99990.81;;;7.70
62611;BMP280;48683;48.084;17.272;2023-04-12T06:08:34;99987.88;;;7.85
62611;BMP280;48683;48.084;17.272;2023-04-12T06:11:00;99984.16;;;8.00
62611;BMP280;48683;48.084;17.272;2023-04-12T06:13:25;99986.53;;;8.13
62611;BMP280;48683;48.084;17.272;2023-04-12T06:15:51;99991.94;;;8.23
62611;BMP280;48683;48.084;17.272;2023-04-12T06:18:16;99991.56;;;8.25
62611;BMP280;48683;48.084;17.272;2023-04-12T06:20:42;99983.56;;;8.28
62611;BMP280;48683;48.084;17.272;2023-04-12T06:23:08;99990.94;;;8.49
62611;BMP280;48683;48.084;17.272;2023-04-12T06:25:33;99985.66;;;8.60
62611;BMP280;48683;48.084;17.272;2023-04-12T06:27:58;99980.69;;;8.65
62611;BMP280;48683;48.084;17.272;2023-04-12T06:30:24;99982.66;;;8.75
62611;BMP280;48683;48.084;17.272;2023-04-12T06:32:49;99973.09;;;8.78
62611;BMP280;48683;48.084;17.272;2023-04-12T06:35:15;99983.47;;;8.97
62611;BMP280;48683;48.084;17.272;2023-04-12T06:37:41;99979.66;;;9.09
62611;BMP280;48683;48.084;17.272;2023-04-12T06:40:07;99975.09;;;9.16
62611;BMP280;48683;48.084;17.272;2023-04-12T06:42:32;99982.41;;;9.33
62611;BMP280;48683;48.084;17.272;2023-04-12T06:44:58;99974.72;;;9.39
62611;BMP280;48683;48.084;17.272;2023-04-12T06:47:23;99981.22;;;9.38
62611;BMP280;48683;48.084;17.272;2023-04-12T06:49:49;99978.19;;;9.50
62611;BMP280;48683;48.084;17.272;2023-04-12T06:52:17;99975.13;;;9.48
62611;BMP280;48683;48.084;17.272;2023-04-12T06:54:42;99988.91;;;9.64
62611;BMP280;48683;48.084;17.272;2023-04-12T06:57:08;99983.91;;;9.77
62611;BMP280;48683;48.084;17.272;2023-04-12T06:59:35;99988.13;;;9.92
62611;BMP280;48683;48.084;17.272;2023-04-12T07:02:00;99981.56;;;10.14
62611;BMP280;48683;48.084;17.272;2023-04-12T07:04:25;99982.38;;;10.08
62611;BMP280;48683;48.084;17.272;2023-04-12T07:06:51;99968.56;;;10.02
62611;BMP280;48683;48.084;17.272;2023-04-12T07:09:16;99985.81;;;10.19
62611;BMP280;48683;48.084;17.272;2023-04-12T07:11:41;99978.50;;;10.16
62611;BMP280;48683;48.084;17.272;2023-04-12T07:14:07;99958.59;;;10.17
62611;BMP280;48683;48.084;17.272;2023-04-12T07:16:32;99972.75;;;10.28
62611;BMP280;48683;48.084;17.272;2023-04-12T07:18:58;99975.00;;;10.40
62611;BMP280;48683;48.084;17.272;2023-04-12T07:21:24;99962.34;;;10.44
62611;BMP280;48683;48.084;17.272;2023-04-12T07:23:50;99966.94;;;10.43
62611;BMP280;48683;48.084;17.272;2023-04-12T07:26:16;99952.00;;;10.46
62611;BMP280;48683;48.084;17.272;2023-04-12T07:28:42;99946.56;;;10.60
62611;BMP280;48683;48.084;17.272;2023-04-12T07:31:07;99949.47;;;10.87
62611;BMP280;48683;48.084;17.272;2023-04-12T07:33:33;99956.25;;;11.09
62611;BMP280;48683;48.084;17.272;2023-04-12T07:36:00;99948.56;;;11.11
62611;BMP280;48683;48.084;17.272;2023-04-12T07:38:26;99944.31;;;11.14
62611;BMP280;48683;48.084;17.272;2023-04-12T07:40:52;99927.13;;;11.04
62611;BMP280;48683;48.084;17.272;2023-04-12T07:43:18;99938.47;;;11.26
62611;BMP280;48683;48.084;17.272;2023-04-12T07:45:43;99930.38;;;11.29
62611;BMP280;48683;48.084;17.272;2023-04-12T07:48:09;99915.53;;;11.14
62611;BMP280;48683;48.084;17.272;2023-04-12T07:50:36;99911.16;;;11.34
62611;BMP280;48683;48.084;17.272;2023-04-12T07:53:23;99916.94;;;11.33
62611;BMP280;48683;48.084;17.272;2023-04-12T07:55:49;99917.41;;;11.65
62611;BMP280;48683;48.084;17.272;2023-04-12T07:58:15;99907.78;;;11.71
62611;BMP280;48683;48.084;17.272;2023-04-12T08:00:41;99909.50;;;11.92
62611;BMP280;48683;48.084;17.272;2023-04-12T08:03:07;99906.16;;;11.81
62611;BMP280;48683;48.084;17.272;2023-04-12T08:05:33;99904.66;;;12.14
62611;BMP280;48683;48.084;17.272;2023-04-12T08:07:58;99895.97;;;11.99
62611;BMP280;48683;48.084;17.272;2023-04-12T08:10:23;99891.94;;;12.14
62611;BMP280;48683;48.084;17.272;2023-04-12T08:12:49;99901.59;;;12.12
62611;BMP280;48683;48.084;17.272;2023-04-12T08:15:14;99889.00;;;12.05
62611;BMP280;48683;48.084;17.272;2023-04-12T08:17:40;99887.16;;;11.95
62611;BMP280;48683;48.084;17.272;2023-04-12T08:20:08;99892.66;;;12.18
62611;BMP280;48683;48.084;17.272;2023-04-12T08:22:34;99873.78;;;12.22
62611;BMP280;48683;48.084;17.272;2023-04-12T08:25:00;99892.84;;;12.34
62611;BMP280;48683;48.084;17.272;2023-04-12T08:27:25;99880.13;;;12.38
62611;BMP280;48683;48.084;17.272;2023-04-12T08:29:51;99880.38;;;12.48
62611;BMP280;48683;48.084;17.272;2023-04-12T08:32:16;99868.84;;;12.47
62611;BMP280;48683;48.084;17.272;2023-04-12T08:34:41;99863.47;;;12.47
62611;BMP280;48683;48.084;17.272;2023-04-12T08:37:07;99862.03;;;12.39
62611;BMP280;48683;48.084;17.272;2023-04-12T08:39:32;99865.78;;;12.75
62611;BMP280;48683;48.084;17.272;2023-04-12T08:41:59;99857.81;;;12.65
62611;BMP280;48683;48.084;17.272;2023-04-12T08:44:38;99854.72;;;12.93
62611;BMP280;48683;48.084;17.272;2023-04-12T08:47:05;99851.69;;;12.91
62611;BMP280;48683;48.084;17.272;2023-04-12T08:49:32;99841.06;;;12.80
62611;BMP280;48683;48.084;17.272;2023-04-12T08:52:03;99853.28;;;13.12
62611;BMP280;48683;48.084;17.272;2023-04-12T08:54:30;99840.53;;;12.89
62611;BMP280;48683;48.084;17.272;2023-04-12T08:56:58;99826.94;;;12.96
62611;BMP280;48683;48.084;17.272;2023-04-12T08:59:24;99823.97;;;12.91
62611;BMP280;48683;48.084;17.272;2023-04-12T09:01:52;99828.69;;;13.10
62611;BMP280;48683;48.084;17.272;2023-04-12T09:04:18;99823.84;;;13.44
62611;BMP280;48683;48.084;17.272;2023-04-12T09:06:43;99817.47;;;13.35
62611;BMP280;48683;48.084;17.272;2023-04-12T09:09:09;99823.53;;;13.42
62611;BMP280;48683;48.084;17.272;2023-04-12T09:11:35;99813.28;;;13.34
62611;BMP280;48683;48.084;17.272;2023-04-12T09:14:00;99825.03;;;13.63
62611;BMP280;48683;48.084;17.272;2023-04-12T09:16:39;99810.00;;;13.65
62611;BMP280;48683;48.084;17.272;2023-04-12T09:19:05;99810.19;;;13.74
62611;BMP280;48683;48.084;17.272;2023-04-12T09:21:31;99808.19;;;13.78
62611;BMP280;48683;48.084;17.272;2023-04-12T09:24:04;99806.16;;;14.02
62611;BMP280;48683;48.084;17.272;2023-04-12T09:26:33;99805.44;;;14.18
62611;BMP280;48683;48.084;17.272;2023-04-12T09:28:58;99800.16;;;14.31
62611;BMP280;48683;48.084;17.272;2023-04-12T09:31:25;99793.31;;;14.26
62611;BMP280;48683;48.084;17.272;2023-04-12T09:33:50;99786.94;;;14.00
62611;BMP280;48683;48.084;17.272;2023-04-12T09:36:16;99780.47;;;14.14
62611;BMP280;48683;48.084;17.272;2023-04-12T09:38:59;99779.38;;;14.47
62611;BMP280;48683;48.084;17.272;2023-04-12T09:41:25;99768.63;;;14.44
62611;BMP280;48683;48.084;17.272;2023-04-12T09:43:52;99768.25;;;14.25
62611;BMP280;48683;48.084;17.272;2023-04-12T09:46:18;99774.88;;;14.41
62611;BMP280;48683;48.084;17.272;2023-04-12T09:48:54;99759.44;;;14.41
62611;BMP280;48683;48.084;17.272;2023-04-12T09:51:27;99760.78;;;14.49
62611;BMP280;48683;48.084;17.272;2023-04-12T09:54:03;99756.06;;;14.53
62611;BMP280;48683;48.084;17.272;2023-04-12T09:56:32;99720.47;;;14.58
62611;BMP280;48683;48.084;17.272;2023-04-12T09:59:01;99752.59;;;15.01
62611;BMP280;48683;48.084;17.272;2023-04-12T10:01:29;99744.09;;;14.70
62611;BMP280;48683;48.084;17.272;2023-04-12T10:03:57;99738.03;;;14.50
62611;BMP280;48683;48.084;17.272;2023-04-12T10:06:23;99743.66;;;14.72
62611;BMP280;48683;48.084;17.272;2023-04-12T10:08:48;99736.97;;;14.93
62611;BMP280;48683;48.084;17.272;2023-04-12T10:11:14;99732.06;;;14.88
62611;BMP280;48683;48.084;17.272;2023-04-12T10:13:41;99725.25;;;15.12
62611;BMP280;48683;48.084;17.272;2023-04-12T10:16:08;99719.38;;;15.01
62611;BMP280;48683;48.084;17.272;2023-04-12T10:18:35;99720.25;;;14.98
62611;BMP280;48683;48.084;17.272;2023-04-12T10:21:03;99707.16;;;14.96
62611;BMP280;48683;48.084;17.272;2023-04-12T10:23:32;99704.81;;;14.82
62611;BMP280;48683;48.084;17.272;2023-04-12T10:25:59;99708.66;;;14.97
62611;BMP280;48683;48.084;17.272;2023-04-12T10:28:26;99692.72;;;14.87
62611;BMP280;48683;48.084;17.272;2023-04-12T10:30:55;99695.41;;;14.87
62611;BMP280;48683;48.084;17.272;2023-04-12T10:33:29;99699.56;;;15.20
62611;BMP280;48683;48.084;17.272;2023-04-12T10:36:00;99690.38;;;15.30
62611;BMP280;48683;48.084;17.272;2023-04-12T10:38:28;99679.84;;;15.48
62611;BMP280;48683;48.084;17.272;2023-04-12T10:43:30;99672.44;;;15.78
62611;BMP280;48683;48.084;17.272;2023-04-12T10:45:56;99684.13;;;16.00
62611;BMP280;48683;48.084;17.272;2023-04-12T10:48:49;99680.41;;;16.44
62611;BMP280;48683;48.084;17.272;2023-04-12T10:51:23;99675.16;;;16.50
62611;BMP280;48683;48.084;17.272;2023-04-12T10:53:53;99672.94;;;16.36
62611;BMP280;48683;48.084;17.272;2023-04-12T10:59:08;99661.78;;;16.81
62611;BMP280;48683;48.084;17.272;2023-04-12T11:01:34;99656.56;;;16.39
62611;BMP280;48683;48.084;17.272;2023-04-12T11:04:17;99639.78;;;16.32
62611;BMP280;48683;48.084;17.272;2023-04-12T11:09:28;99635.78;;;16.24
62611;BMP280;48683;48.084;17.272;2023-04-12T11:14:33;99633.59;;;16.44
62611;BMP280;48683;48.084;17.272;2023-04-12T11:19:37;99615.31;;;16.35
62611;BMP280;48683;48.084;17.272;2023-04-12T11:22:03;99614.31;;;16.42
62611;BMP280;48683;48.084;17.272;2023-04-12T11:24:29;99613.34;;;16.36
62611;BMP280;48683;48.084;17.272;2023-04-12T11:26:56;99614.19;;;16.45
62611;BMP280;48683;48.084;17.272;2023-04-12T11:29:25;99598.25;;;16.47
62611;BMP280;48683;48.084;17.272;2023-04-12T11:31:50;99592.41;;;16.49
62611;BMP280;48683;48.084;17.272;2023-04-12T11:34:17;99594.34;;;16.48
62611;BMP280;48683;48.084;17.272;2023-04-12T11:36:44;99606.00;;;16.71
62611;BMP280;48683;48.084;17.272;2023-04-12T11:39:10;99591.38;;;16.68
62611;BMP280;48683;48.084;17.272;2023-04-12T11:41:36;99589.94;;;16.42
62611;BMP280;48683;48.084;17.272;2023-04-12T11:44:01;99581.25;;;16.00
62611;BMP280;48683;48.084;17.272;2023-04-12T11:46:32;99582.63;;;16.30
62611;BMP280;48683;48.084;17.272;2023-04-12T11:48:58;99584.97;;;16.40
62611;BMP280;48683;48.084;17.272;2023-04-12T11:51:24;99577.47;;;16.57
62611;BMP280;48683;48.084;17.272;2023-04-12T11:53:53;99572.56;;;16.52
62611;BMP280;48683;48.084;17.272;2023-04-12T11:56:18;99575.25;;;16.65
62611;BMP280;48683;48.084;17.272;2023-04-12T11:58:47;99578.44;;;16.94
62611;BMP280;48683;48.084;17.272;2023-04-12T12:01:14;99583.81;;;17.06
62611;BMP280;48683;48.084;17.272;2023-04-12T12:03:40;99562.78;;;17.20
62611;BMP280;48683;48.084;17.272;2023-04-12T12:06:07;99574.34;;;17.42
62611;BMP280;48683;48.084;17.272;2023-04-12T12:08:32;99564.81;;;17.68
62611;BMP280;48683;48.084;17.272;2023-04-12T12:10:58;99554.16;;;17.52
62611;BMP280;48683;48.084;17.272;2023-04-12T12:13:23;99552.91;;;17.75
62611;BMP280;48683;48.084;17.272;2023-04-12T12:15:52;99547.47;;;17.75
62611;BMP280;48683;48.084;17.272;2023-04-12T12:18:17;99547.94;;;17.82
62611;BMP280;48683;48.084;17.272;2023-04-12T12:20:49;99533.66;;;17.82
62611;BMP280;48683;48.084;17.272;2023-04-12T12:23:29;99539.38;;;18.02
62611;BMP280;48683;48.084;17.272;2023-04-12T12:25:58;99537.44;;;17.93
62611;BMP280;48683;48.084;17.272;2023-04-12T12:28:24;99532.59;;;17.48
62611;BMP280;48683;48.084;17.272;2023-04-12T12:31:12;99536.00;;;17.71
62611;BMP280;48683;48.084;17.272;2023-04-12T12:33:42;99512.84;;;17.48
62611;BMP280;48683;48.084;17.272;2023-04-12T12:36:08;99518.75;;;17.55
62611;BMP280;48683;48.084;17.272;2023-04-12T12:38:37;99522.03;;;17.90
62611;BMP280;48683;48.084;17.272;2023-04-12T12:41:16;99508.31;;;17.85
62611;BMP280;48683;48.084;17.272;2023-04-12T12:43:45;99494.47;;;16.72
62611;BMP280;48683;48.084;17.272;2023-04-12T12:46:11;99508.19;;;16.78
62611;BMP280;48683;48.084;17.272;2023-04-12T12:48:40;99494.81;;;17.14
62611;BMP280;48683;48.084;17.272;2023-04-12T12:51:10;99494.59;;;17.39
62611;BMP280;48683;48.084;17.272;2023-04-12T12:53:36;99486.66;;;17.54
62611;BMP280;48683;48.084;17.272;2023-04-12T12:56:01;99478.88;;;17.65
62611;BMP280;48683;48.084;17.272;2023-04-12T12:58:28;99480.22;;;17.61
62611;BMP280;48683;48.084;17.272;2023-04-12T13:00:53;99475.44;;;17.74
62611;BMP280;48683;48.084;17.272;2023-04-12T13:03:19;99477.00;;;17.53
62611;BMP280;48683;48.084;17.272;2023-04-12T13:05:45;99472.53;;;17.68
62611;BMP280;48683;48.084;17.272;2023-04-12T13:08:10;99471.53;;;17.93
62611;BMP280;48683;48.084;17.272;2023-04-12T13:10:36;99442.19;;;17.51
62611;BMP280;48683;48.084;17.272;2023-04-12T13:13:01;99467.88;;;17.87
62611;BMP280;48683;48.084;17.272;2023-04-12T13:15:27;99461.69;;;17.86
62611;BMP280;48683;48.084;17.272;2023-04-12T13:17:53;99449.50;;;17.82
62611;BMP280;48683;48.084;17.272;2023-04-12T13:20:19;99444.22;;;17.69
62611;BMP280;48683;48.084;17.272;2023-04-12T13:22:44;99444.50;;;17.80
62611;BMP280;48683;48.084;17.272;2023-04-12T13:25:10;99433.34;;;17.69
62611;BMP280;48683;48.084;17.272;2023-04-12T13:27:35;99431.84;;;17.68
62611;BMP280;48683;48.084;17.272;2023-04-12T13:30:02;99434.84;;;17.61
62611;BMP280;48683;48.084;17.272;2023-04-12T13:32:27;99438.91;;;17.75
62611;BMP280;48683;48.084;17.272;2023-04-12T13:34:53;99435.00;;;17.94
62611;BMP280;48683;48.084;17.272;2023-04-12T13:37:18;99422.03;;;17.71
62611;BMP280;48683;48.084;17.272;2023-04-12T13:39:43;99422.03;;;17.80
62611;BMP280;48683;48.084;17.272;2023-04-12T13:42:09;99426.13;;;17.84
62611;BMP280;48683;48.084;17.272;2023-04-12T13:44:35;99418.59;;;17.70
62611;BMP280;48683;48.084;17.272;2023-04-12T13:47:01;99418.44;;;17.74
62611;BMP280;48683;48.084;17.272;2023-04-12T13:49:27;99427.59;;;17.67
62611;BMP280;48683;48.084;17.272;2023-04-12T13:51:52;99410.88;;;17.87
62611;BMP280;48683;48.084;17.272;2023-04-12T13:54:17;99405.31;;;17.99
62611;BMP280;48683;48.084;17.272;2023-04-12T13:56:43;99417.22;;;17.75
62611;BMP280;48683;48.084;17.272;2023-04-12T13:59:08;99414.50;;;17.84
62611;BMP280;48683;48.084;17.272;2023-04-12T14:01:34;99418.13;;;17.81
62611;BMP280;48683;48.084;17.272;2023-04-12T14:03:59;99419.94;;;17.84
62611;BMP280;48683;48.084;17.272;2023-04-12T14:06:25;99401.81;;;17.90
62611;BMP280;48683;48.084;17.272;2023-04-12T14:08:51;99402.16;;;18.01
62611;BMP280;48683;48.084;17.272;2023-04-12T14:11:16;99399.13;;;18.08
62611;BMP280;48683;48.084;17.272;2023-04-12T14:13:42;99401.66;;;18.02
62611;BMP280;48683;48.084;17.272;2023-04-12T14:16:07;99395.50;;;17.93
62611;BMP280;48683;48.084;17.272;2023-04-12T14:18:33;99401.22;;;17.86
62611;BMP280;48683;48.084;17.272;2023-04-12T14:20:58;99398.50;;;17.68
62611;BMP280;48683;48.084;17.272;2023-04-12T14:23:24;99400.47;;;17.67